Bekir Hacibekiroglu — TCSY2 — position and weather

sailwx.info

Track history (hours):
 
Tides and Currents Weather Stations Pressure Air Temp Water Temp Dewpoint Dewpoint Depression Visibility Wind Speed Wind Dir Waves Ship Positions

Bekir Hacibekiroglu

Last reported at 2014-Aug-22 09:33 UTC. Time now 2014-Aug-22 13:43 UTC.
Position N 42°05' E 029°36'.

Length 83 m; draft 3.9 m.

Type: Cargo ship. MMSI: 271002635.

Date/timePositionNaut miles runAvg speedWind from/ knotsBaromVisibWave heightAir tempDewpointWater temp
2014-Aug-22 09:33N 42°05' E 029°36'1110.8
2014-Aug-22 08:33N 41°55' E 029°29'1110.6
2014-Aug-22 07:33N 41°46' E 029°23'49 9.4
2014-Aug-22 02:24N 41°00' E 028°60'5 5.8
2014-Aug-22 01:33N 40°56' E 028°57'4 3.3
2014-Aug-22 00:28N 40°58' E 028°54'0 0.0
2014-Aug-21 23:33N 40°58' E 028°54'0 0.0
2014-Aug-21 22:24N 40°58' E 028°54'0 0.0
2014-Aug-21 21:24N 40°58' E 028°54'0 0.0
2014-Aug-21 20:29N 40°58' E 028°54'0 0.0
2014-Aug-21 19:26N 40°58' E 028°54'0 0.0
2014-Aug-21 18:33N 40°58' E 028°54'0 0.0
2014-Aug-21 17:33N 40°58' E 028°54'0 0.0
2014-Aug-21 16:32N 40°58' E 028°54'0 0.0
2014-Aug-21 15:27N 40°58' E 028°54'0 0.1
2014-Aug-21 14:30N 40°58' E 028°54'0 0.0
2014-Aug-21 13:33N 40°58' E 028°54'0 0.0
2014-Aug-21 12:32N 40°58' E 028°54'0 0.0
2014-Aug-21 11:33N 40°58' E 028°54'0 0.0
2014-Aug-21 10:33N 40°58' E 028°54'0 0.0
2014-Aug-21 09:33N 40°58' E 028°54'0 0.0
2014-Aug-21 08:33N 40°58' E 028°54'0 0.1
2014-Aug-21 07:33N 40°58' E 028°54'0 0.0
2014-Aug-21 06:32N 40°58' E 028°54'0 0.0
2014-Aug-21 05:33N 40°58' E 028°54'0 0.0
2014-Aug-21 04:33N 40°58' E 028°54'0 0.0
2014-Aug-21 03:33N 40°58' E 028°54'1 0.8
2014-Aug-21 02:31N 40°57' E 028°55'6 6.0
2014-Aug-21 01:33N 40°52' E 028°51'120 9.9
2014-Aug-20 13:22N 40°09' E 026°23'143 5.7
2014-Aug-19 12:05N 37°46' E 026°28'7 9.8
2014-Aug-19 11:24N 37°40' E 026°33'247 8.0
2014-Aug-18 04:33N 34°11' E 029°14'9 7.3
2014-Aug-18 03:21N 34°03' E 029°17'9 8.2
2014-Aug-18 02:13N 33°54' E 029°20'67 8.5
2014-Aug-17 18:21N 32°49' E 029°39'7 8.3
2014-Aug-17 17:33N 32°42' E 029°41'8 8.2
2014-Aug-17 16:33N 32°34' E 029°43'8 8.3
2014-Aug-17 15:33N 32°26' E 029°45'18 9.0
2014-Aug-17 13:32N 32°09' E 029°51'9 9.4
2014-Aug-17 12:34N 31°60' E 029°54'10 9.6
2014-Aug-17 11:34N 31°50' E 029°57'22 9.7
2014-Aug-17 09:20N 31°29' E 030°03'10 0.7
2014-Aug-16 18:13N 31°19' E 030°04'0 0.0
2014-Aug-16 13:28N 31°19' E 030°04'0 0.0
2014-Aug-16 11:31N 31°19' E 030°04'0 0.0
2014-Aug-16 10:04N 31°19' E 030°04'0 0.0
2014-Aug-16 09:25N 31°19' E 030°04'0 0.0
2014-Aug-16 06:31N 31°19' E 030°04'0 0.0
2014-Aug-16 05:31N 31°19' E 030°04'0 0.0
2014-Aug-16 04:13N 31°19' E 030°04'0 0.0
2014-Aug-16 03:31N 31°19' E 030°04'0 0.0
2014-Aug-16 02:16N 31°19' E 030°04'0 0.0
2014-Aug-16 00:22N 31°19' E 030°04'0 0.0
2014-Aug-15 22:28N 31°19' E 030°04'0 0.0
2014-Aug-15 15:22N 31°19' E 030°04'0 0.0
2014-Aug-15 09:25N 31°19' E 030°04'0 0.0
2014-Aug-15 07:31N 31°19' E 030°04'0 0.0
2014-Aug-15 06:31N 31°19' E 030°04'0 0.0
2014-Aug-15 05:31N 31°19' E 030°04'0 0.0
2014-Aug-15 00:10N 31°19' E 030°04'0 0.0
2014-Aug-14 21:22N 31°19' E 030°04'0 0.0
2014-Aug-14 20:25N 31°19' E 030°04'0 0.0
2014-Aug-14 19:25N 31°19' E 030°04'0 0.0
2014-Aug-14 18:31N 31°19' E 030°04'0 0.0
2014-Aug-14 16:25N 31°19' E 030°04'0 0.0
2014-Aug-13 22:25N 31°19' E 030°04'0 0.0
2014-Aug-13 20:31N 31°19' E 030°04'0 0.0
2014-Aug-13 18:13N 31°19' E 030°04'0 0.0
2014-Aug-13 17:31N 31°19' E 030°04'0 0.0
2014-Aug-13 16:25N 31°19' E 030°04'0 0.0
2014-Aug-13 14:25N 31°19' E 030°04'0 0.0
2014-Aug-13 12:28N 31°19' E 030°04'0 0.0
2014-Aug-13 10:28N 31°19' E 030°04'0 0.0
2014-Aug-13 09:13N 31°19' E 030°04'0 0.0
2014-Aug-13 08:22N 31°19' E 030°04'0 0.0
2014-Aug-13 07:22N 31°19' E 030°04'0 0.0
2014-Aug-12 23:31N 31°19' E 030°04'0 0.0
2014-Aug-12 22:31N 31°19' E 030°04'0 0.0
2014-Aug-12 21:28N 31°19' E 030°04'0 0.0
2014-Aug-12 20:28N 31°19' E 030°04'0 0.0
2014-Aug-12 19:07N 31°19' E 030°04'  
Track history (hours):
 
Tides and Currents Weather Stations Pressure Air Temp Water Temp Dewpoint Dewpoint Depression Visibility Wind Speed Wind Dir Waves Ship Positions

Bekir Hacibekiroglu

Last reported at 2014-Aug-22 09:33 UTC. Time now 2014-Aug-22 13:43 UTC.
Position N 42°05' E 029°36'.

Length 83 m; draft 3.9 m.

Type: Cargo ship. MMSI: 271002635.

Date/timePositionNaut miles runAvg speedWind from/ knotsBaromVisibWave heightAir tempDewpointWater temp
2014-Aug-22 09:33N 42°05' E 029°36'1110.8
2014-Aug-22 08:33N 41°55' E 029°29'1110.6
2014-Aug-22 07:33N 41°46' E 029°23'49 9.4
2014-Aug-22 02:24N 41°00' E 028°60'5 5.8
2014-Aug-22 01:33N 40°56' E 028°57'4 3.3
2014-Aug-22 00:28N 40°58' E 028°54'0 0.0
2014-Aug-21 23:33N 40°58' E 028°54'0 0.0
2014-Aug-21 22:24N 40°58' E 028°54'0 0.0
2014-Aug-21 21:24N 40°58' E 028°54'0 0.0
2014-Aug-21 20:29N 40°58' E 028°54'0 0.0
2014-Aug-21 19:26N 40°58' E 028°54'0 0.0
2014-Aug-21 18:33N 40°58' E 028°54'0 0.0
2014-Aug-21 17:33N 40°58' E 028°54'0 0.0
2014-Aug-21 16:32N 40°58' E 028°54'0 0.0
2014-Aug-21 15:27N 40°58' E 028°54'0 0.1
2014-Aug-21 14:30N 40°58' E 028°54'0 0.0
2014-Aug-21 13:33N 40°58' E 028°54'0 0.0
2014-Aug-21 12:32N 40°58' E 028°54'0 0.0
2014-Aug-21 11:33N 40°58' E 028°54'0 0.0
2014-Aug-21 10:33N 40°58' E 028°54'0 0.0
2014-Aug-21 09:33N 40°58' E 028°54'0 0.0
2014-Aug-21 08:33N 40°58' E 028°54'0 0.1
2014-Aug-21 07:33N 40°58' E 028°54'0 0.0
2014-Aug-21 06:32N 40°58' E 028°54'0 0.0
2014-Aug-21 05:33N 40°58' E 028°54'0 0.0
2014-Aug-21 04:33N 40°58' E 028°54'0 0.0
2014-Aug-21 03:33N 40°58' E 028°54'1 0.8
2014-Aug-21 02:31N 40°57' E 028°55'6 6.0
2014-Aug-21 01:33N 40°52' E 028°51'120 9.9
2014-Aug-20 13:22N 40°09' E 026°23'143 5.7
2014-Aug-19 12:05N 37°46' E 026°28'7 9.8
2014-Aug-19 11:24N 37°40' E 026°33'247 8.0
2014-Aug-18 04:33N 34°11' E 029°14'9 7.3
2014-Aug-18 03:21N 34°03' E 029°17'9 8.2
2014-Aug-18 02:13N 33°54' E 029°20'67 8.5
2014-Aug-17 18:21N 32°49' E 029°39'7 8.3
2014-Aug-17 17:33N 32°42' E 029°41'8 8.2
2014-Aug-17 16:33N 32°34' E 029°43'8 8.3
2014-Aug-17 15:33N 32°26' E 029°45'18 9.0
2014-Aug-17 13:32N 32°09' E 029°51'9 9.4
2014-Aug-17 12:34N 31°60' E 029°54'10 9.6
2014-Aug-17 11:34N 31°50' E 029°57'22 9.7
2014-Aug-17 09:20N 31°29' E 030°03'10 0.7
2014-Aug-16 18:13N 31°19' E 030°04'0 0.0
2014-Aug-16 13:28N 31°19' E 030°04'0 0.0
2014-Aug-16 11:31N 31°19' E 030°04'0 0.0
2014-Aug-16 10:04N 31°19' E 030°04'0 0.0
2014-Aug-16 09:25N 31°19' E 030°04'0 0.0
2014-Aug-16 06:31N 31°19' E 030°04'0 0.0
2014-Aug-16 05:31N 31°19' E 030°04'0 0.0
2014-Aug-16 04:13N 31°19' E 030°04'0 0.0
2014-Aug-16 03:31N 31°19' E 030°04'0 0.0
2014-Aug-16 02:16N 31°19' E 030°04'0 0.0
2014-Aug-16 00:22N 31°19' E 030°04'0 0.0
2014-Aug-15 22:28N 31°19' E 030°04'0 0.0
2014-Aug-15 15:22N 31°19' E 030°04'0 0.0
2014-Aug-15 09:25N 31°19' E 030°04'0 0.0
2014-Aug-15 07:31N 31°19' E 030°04'0 0.0
2014-Aug-15 06:31N 31°19' E 030°04'0 0.0
2014-Aug-15 05:31N 31°19' E 030°04'0 0.0
2014-Aug-15 00:10N 31°19' E 030°04'0 0.0
2014-Aug-14 21:22N 31°19' E 030°04'0 0.0
2014-Aug-14 20:25N 31°19' E 030°04'0 0.0
2014-Aug-14 19:25N 31°19' E 030°04'0 0.0
2014-Aug-14 18:31N 31°19' E 030°04'0 0.0
2014-Aug-14 16:25N 31°19' E 030°04'0 0.0
2014-Aug-13 22:25N 31°19' E 030°04'0 0.0
2014-Aug-13 20:31N 31°19' E 030°04'0 0.0
2014-Aug-13 18:13N 31°19' E 030°04'0 0.0
2014-Aug-13 17:31N 31°19' E 030°04'0 0.0
2014-Aug-13 16:25N 31°19' E 030°04'0 0.0
2014-Aug-13 14:25N 31°19' E 030°04'0 0.0
2014-Aug-13 12:28N 31°19' E 030°04'0 0.0
2014-Aug-13 10:28N 31°19' E 030°04'0 0.0
2014-Aug-13 09:13N 31°19' E 030°04'0 0.0
2014-Aug-13 08:22N 31°19' E 030°04'0 0.0
2014-Aug-13 07:22N 31°19' E 030°04'0 0.0
2014-Aug-12 23:31N 31°19' E 030°04'0 0.0
2014-Aug-12 22:31N 31°19' E 030°04'0 0.0
2014-Aug-12 21:28N 31°19' E 030°04'0 0.0
2014-Aug-12 20:28N 31°19' E 030°04'0 0.0
2014-Aug-12 19:07N 31°19' E 030°04'  

Dump ship's entire track history